createdAt,value
2022-09-04T00:02:52.606Z,16.25
2022-09-04T00:05:27.276Z,16.22
2022-09-04T00:08:12.551Z,16.18
2022-09-04T00:10:57.012Z,16.16
2022-09-04T00:13:27.750Z,16.11
2022-09-04T00:16:05.908Z,16.08
2022-09-04T00:18:44.016Z,16.05
2022-09-04T00:21:22.123Z,16.04
2022-09-04T00:23:59.983Z,16.01
2022-09-04T00:26:41.924Z,15.97
2022-09-04T00:29:27.609Z,15.93
2022-09-04T00:32:02.745Z,15.89
2022-09-04T00:34:47.868Z,15.88
2022-09-04T00:37:21.620Z,15.86
2022-09-04T00:40:14.424Z,15.84
2022-09-04T00:42:57.295Z,15.80
2022-09-04T00:45:36.590Z,15.76
2022-09-04T00:48:17.318Z,15.73
2022-09-04T00:51:03.397Z,15.71
2022-09-04T00:53:56.246Z,15.69
2022-09-04T00:56:31.952Z,15.67
2022-09-04T00:59:13.647Z,15.64
2022-09-04T01:01:41.573Z,15.61
2022-09-04T01:04:32.878Z,15.57
2022-09-04T01:07:26.198Z,15.55
2022-09-04T01:10:06.822Z,15.55
2022-09-04T01:12:50.656Z,15.54
2022-09-04T01:15:24.044Z,15.49
2022-09-04T01:18:08.299Z,15.49
2022-09-04T01:21:10.382Z,15.48
2022-09-04T01:24:08.502Z,15.44
2022-09-04T01:26:53.216Z,15.44
2022-09-04T01:30:01.797Z,15.42
2022-09-04T01:33:13.282Z,15.41
2022-09-04T01:36:02.752Z,15.37
2022-09-04T01:39:00.102Z,15.31
2022-09-04T01:41:33.995Z,15.30
2022-09-04T01:44:08.234Z,15.29
2022-09-04T01:46:44.139Z,15.26
2022-09-04T01:49:31.462Z,15.23
2022-09-04T01:52:19.450Z,15.24
2022-09-04T01:55:03.831Z,15.21
2022-09-04T01:57:41.611Z,15.18
2022-09-04T02:00:09.119Z,15.18
2022-09-04T02:03:02.792Z,15.17
2022-09-04T02:05:48.681Z,15.13
2022-09-04T02:08:21.988Z,15.14
2022-09-04T02:10:58.036Z,15.11
2022-09-04T02:14:04.462Z,15.08
2022-09-04T02:16:43.479Z,15.08
2022-09-04T02:19:22.262Z,15.09
2022-09-04T02:22:03.855Z,15.04
2022-09-04T02:24:40.627Z,15.03
2022-09-04T02:27:28.613Z,15.00
2022-09-04T02:30:10.722Z,14.97
2022-09-04T02:32:49.437Z,14.97
2022-09-04T02:35:39.372Z,14.94
2022-09-04T02:38:17.387Z,14.91
2022-09-04T02:40:51.953Z,14.90
2022-09-04T02:44:09.387Z,14.90
2022-09-04T02:47:14.840Z,14.86
2022-09-04T02:50:11.709Z,14.84
2022-09-04T02:52:50.620Z,14.81
2022-09-04T02:55:50.041Z,14.81
2022-09-04T02:58:26.692Z,14.79
2022-09-04T03:01:05.579Z,14.75
2022-09-04T03:03:54.783Z,14.72
2022-09-04T03:06:43.144Z,14.68
2022-09-04T03:09:19.714Z,14.66
2022-09-04T03:11:55.714Z,14.65
2022-09-04T03:14:37.250Z,14.62
2022-09-04T03:17:08.037Z,14.59
2022-09-04T03:19:49.164Z,14.58
2022-09-04T03:22:34.801Z,14.57
2022-09-04T03:25:42.855Z,14.54
2022-09-04T03:28:17.849Z,14.53
2022-09-04T03:30:46.790Z,14.53
2022-09-04T03:33:32.782Z,14.51
2022-09-04T03:36:16.733Z,14.50
2022-09-04T03:39:31.522Z,14.45
2022-09-04T03:42:16.319Z,14.45
2022-09-04T03:44:52.316Z,14.43
2022-09-04T03:47:27.407Z,14.42
2022-09-04T03:50:26.601Z,14.42
2022-09-04T03:53:07.800Z,14.35
2022-09-04T03:56:01.824Z,14.34
2022-09-04T03:58:38.344Z,14.31
2022-09-04T04:01:38.665Z,14.28
2022-09-04T04:04:23.989Z,14.29
2022-09-04T04:07:17.100Z,14.29
2022-09-04T04:10:22.189Z,14.28
2022-09-04T04:13:15.251Z,14.27
2022-09-04T04:15:58.248Z,14.24
2022-09-04T04:18:31.570Z,14.23
2022-09-04T04:21:17.206Z,14.20
2022-09-04T04:24:05.550Z,14.19
2022-09-04T04:26:44.834Z,14.18
2022-09-04T04:29:38.156Z,14.17
2022-09-04T04:32:34.079Z,14.16
2022-09-04T04:35:22.529Z,14.14
2022-09-04T04:38:27.776Z,14.13
2022-09-04T04:41:03.372Z,14.14
2022-09-04T04:43:39.120Z,14.13
2022-09-04T04:46:43.530Z,14.12
2022-09-04T04:49:37.784Z,14.12
2022-09-04T04:52:37.091Z,14.09
2022-09-04T04:55:22.978Z,14.11
2022-09-04T04:58:21.008Z,14.12
2022-09-04T05:01:05.406Z,14.13
2022-09-04T05:04:08.049Z,14.13
2022-09-04T05:07:02.175Z,14.16
2022-09-04T05:09:42.289Z,14.17
2022-09-04T05:12:14.095Z,14.19
2022-09-04T05:14:58.243Z,14.20
2022-09-04T05:17:53.856Z,14.22
2022-09-04T05:20:26.901Z,14.23
2022-09-04T05:23:28.695Z,14.26
2022-09-04T05:26:12.039Z,14.28
2022-09-04T05:28:53.475Z,14.30
2022-09-04T05:31:45.461Z,14.32
2022-09-04T05:34:34.321Z,14.34
2022-09-04T05:37:16.692Z,14.38
2022-09-04T05:39:56.041Z,14.43
2022-09-04T05:42:45.681Z,14.46
2022-09-04T05:45:18.376Z,14.48
2022-09-04T05:47:54.845Z,14.50
2022-09-04T05:50:55.898Z,14.54
2022-09-04T05:53:41.942Z,14.60
2022-09-04T05:56:27.422Z,14.68
2022-09-04T05:59:20.318Z,14.81
2022-09-04T06:02:09.005Z,14.90
2022-09-04T06:05:03.987Z,15.09
2022-09-04T06:08:03.240Z,15.29
2022-09-04T06:10:56.796Z,15.38
2022-09-04T06:13:48.385Z,15.46
2022-09-04T06:16:40.418Z,15.54
2022-09-04T06:19:13.249Z,15.70
2022-09-04T06:22:22.998Z,15.91
2022-09-04T06:25:09.277Z,16.23
2022-09-04T06:27:48.892Z,16.51
2022-09-04T06:30:18.095Z,16.78
2022-09-04T06:33:17.242Z,17.06
2022-09-04T06:35:56.332Z,17.14
2022-09-04T06:38:44.519Z,17.04
2022-09-04T06:41:33.842Z,17.02
2022-09-04T06:44:15.744Z,17.08
2022-09-04T06:47:22.762Z,17.05
2022-09-04T06:50:41.939Z,17.12
2022-09-04T06:53:37.920Z,17.23
2022-09-04T06:56:23.135Z,17.30
2022-09-04T06:59:00.549Z,17.33
2022-09-04T07:01:46.915Z,17.36
2022-09-04T07:05:04.511Z,17.43
2022-09-04T07:08:01.620Z,17.49
2022-09-04T07:10:46.837Z,17.76
2022-09-04T07:13:46.247Z,17.98
2022-09-04T07:16:19.406Z,18.18
2022-09-04T07:19:25.190Z,18.35
2022-09-04T07:22:18.157Z,18.56
2022-09-04T07:25:00.674Z,18.69
2022-09-04T07:28:00.645Z,18.87
2022-09-04T07:30:32.203Z,19.05
2022-09-04T07:33:07.234Z,19.20
2022-09-04T07:35:49.086Z,19.38
2022-09-04T07:38:25.077Z,19.54
2022-09-04T07:41:02.674Z,19.71
2022-09-04T07:43:54.707Z,19.85
2022-09-04T07:46:35.616Z,20.07
2022-09-04T07:49:12.620Z,20.31
2022-09-04T07:51:54.984Z,20.57
2022-09-04T07:54:31.507Z,20.74
2022-09-04T07:57:16.882Z,20.95
2022-09-04T07:59:59.292Z,21.17
2022-09-04T08:02:56.753Z,21.29
2022-09-04T08:05:45.047Z,21.51
2022-09-04T08:08:24.336Z,21.62
2022-09-04T08:11:02.887Z,21.75
2022-09-04T08:14:02.251Z,21.89
2022-09-04T08:17:06.597Z,22.13
2022-09-04T08:19:40.948Z,22.28
2022-09-04T08:22:17.425Z,22.35
2022-09-04T08:25:14.826Z,22.52
2022-09-04T08:27:51.810Z,22.76
2022-09-04T08:30:21.485Z,22.93
2022-09-04T08:33:27.692Z,23.17
2022-09-04T08:36:23.055Z,23.35
2022-09-04T08:39:02.260Z,23.35
2022-09-04T08:42:06.243Z,23.37
2022-09-04T08:44:44.970Z,23.56
2022-09-04T08:47:52.993Z,23.79
2022-09-04T08:50:51.885Z,24.07
2022-09-04T08:53:22.509Z,24.15
2022-09-04T08:56:28.580Z,24.22
2022-09-04T08:59:16.402Z,24.29
2022-09-04T09:02:04.299Z,24.17
2022-09-04T09:05:00.271Z,24.24
2022-09-04T09:07:58.654Z,24.48
2022-09-04T09:10:52.301Z,24.51
2022-09-04T09:14:01.297Z,24.74
2022-09-04T09:16:54.301Z,24.80
2022-09-04T09:19:43.387Z,24.86
2022-09-04T09:22:16.113Z,25.08
2022-09-04T09:25:11.511Z,25.14
2022-09-04T09:28:01.174Z,25.46
2022-09-04T09:30:51.446Z,25.69
2022-09-04T09:33:32.826Z,25.80
2022-09-04T09:37:00.509Z,25.90
2022-09-04T09:39:55.040Z,26.00
2022-09-04T09:42:32.629Z,26.14
2022-09-04T09:45:11.537Z,26.17
2022-09-04T09:48:07.677Z,26.19
2022-09-04T09:51:13.446Z,26.40
2022-09-04T09:53:47.037Z,26.48
2022-09-04T09:56:26.232Z,26.59
2022-09-04T09:59:37.839Z,26.79
2022-09-04T10:02:46.909Z,26.96
2022-09-04T10:05:40.890Z,27.31
2022-09-04T10:08:13.672Z,27.48
2022-09-04T10:11:18.733Z,27.52
2022-09-04T10:14:07.512Z,27.42
2022-09-04T10:17:06.370Z,27.57
2022-09-04T10:19:52.614Z,27.75
2022-09-04T10:22:53.867Z,27.86
2022-09-04T10:25:42.317Z,27.99
2022-09-04T10:28:26.326Z,28.15
2022-09-04T10:31:02.753Z,28.26
2022-09-04T10:33:48.282Z,28.24
2022-09-04T10:36:17.938Z,28.28
2022-09-04T10:39:39.164Z,28.42
2022-09-04T10:42:22.527Z,28.27
2022-09-04T10:44:58.528Z,28.19
2022-09-04T10:48:05.368Z,28.28
2022-09-04T10:50:38.613Z,28.39
2022-09-04T10:53:20.892Z,28.53
2022-09-04T10:55:54.421Z,28.60
2022-09-04T10:59:03.202Z,28.64
2022-09-04T11:01:39.256Z,28.67
2022-09-04T11:04:30.838Z,28.84
2022-09-04T11:07:28.845Z,28.87
2022-09-04T11:10:20.626Z,28.89
2022-09-04T11:13:18.398Z,28.98
2022-09-04T11:16:03.283Z,29.17
2022-09-04T11:18:45.736Z,29.35
2022-09-04T11:21:31.353Z,29.30
2022-09-04T11:24:30.559Z,28.99
2022-09-04T11:27:10.202Z,29.30
2022-09-04T11:30:02.450Z,29.37
2022-09-04T11:32:39.014Z,29.67
2022-09-04T11:35:29.871Z,29.63
2022-09-04T11:38:09.415Z,29.67
2022-09-04T11:41:15.947Z,29.84
2022-09-04T11:44:32.399Z,29.69
2022-09-04T11:47:35.186Z,29.98
2022-09-04T11:50:14.668Z,29.60
2022-09-04T11:53:15.015Z,29.17
2022-09-04T11:56:00.145Z,28.85
2022-09-04T11:59:14.478Z,28.82
2022-09-04T12:02:02.566Z,28.87
2022-09-04T12:04:51.186Z,28.70
2022-09-04T12:07:55.500Z,28.80
2022-09-04T12:10:31.359Z,29.13
2022-09-04T12:13:29.035Z,28.98
2022-09-04T12:16:18.531Z,29.24
2022-09-04T12:19:08.688Z,29.44
2022-09-04T12:21:53.343Z,29.48
2022-09-04T12:24:32.333Z,29.59
2022-09-04T12:27:17.714Z,29.58
2022-09-04T12:29:54.172Z,29.66
2022-09-04T12:32:33.147Z,29.74
2022-09-04T12:35:18.282Z,29.63
2022-09-04T12:37:51.057Z,29.75
2022-09-04T12:40:34.748Z,30.05
2022-09-04T12:43:26.278Z,29.94
2022-09-04T12:46:31.263Z,29.73
2022-09-04T12:49:43.471Z,29.45
2022-09-04T12:52:17.697Z,29.32
2022-09-04T12:55:11.975Z,29.15
2022-09-04T12:57:55.821Z,29.01
2022-09-04T13:00:26.547Z,28.85
2022-09-04T13:03:04.554Z,28.74
2022-09-04T13:05:59.091Z,28.53
2022-09-04T13:09:04.450Z,28.57
2022-09-04T13:11:53.873Z,28.57
2022-09-04T13:14:48.463Z,28.46
2022-09-04T13:17:18.635Z,28.57
2022-09-04T13:20:05.307Z,28.84
2022-09-04T13:22:47.654Z,29.08
2022-09-04T13:25:27.542Z,29.05
2022-09-04T13:28:05.100Z,28.87
2022-09-04T13:30:36.037Z,28.79
2022-09-04T13:33:05.846Z,28.88
2022-09-04T13:35:44.359Z,28.87
2022-09-04T13:38:55.653Z,29.25
2022-09-04T13:41:30.543Z,29.38
2022-09-04T13:44:16.702Z,29.61
2022-09-04T13:47:12.489Z,29.74
2022-09-04T13:49:48.315Z,29.78
2022-09-04T13:52:43.414Z,29.66
2022-09-04T13:55:19.937Z,29.66
2022-09-04T13:58:11.114Z,29.56
2022-09-04T14:00:46.215Z,29.37
2022-09-04T14:03:29.765Z,29.37
2022-09-04T14:05:58.053Z,29.31
2022-09-04T14:08:30.636Z,29.19
2022-09-04T14:11:21.382Z,29.12
2022-09-04T14:14:11.819Z,29.09
2022-09-04T14:16:44.147Z,29.11
2022-09-04T14:19:21.446Z,29.15
2022-09-04T14:22:16.397Z,29.21
2022-09-04T14:25:11.794Z,29.17
2022-09-04T14:28:16.992Z,29.27
2022-09-04T14:30:51.525Z,29.21
2022-09-04T14:33:36.316Z,29.07
2022-09-04T14:36:22.324Z,29.09
2022-09-04T14:39:23.177Z,29.27
2022-09-04T14:41:58.986Z,29.26
2022-09-04T14:44:44.253Z,29.17
2022-09-04T14:47:22.209Z,29.06
2022-09-04T14:49:51.998Z,29.08
2022-09-04T14:52:39.962Z,29.13
2022-09-04T14:55:14.765Z,29.18
2022-09-04T14:57:56.054Z,29.14
2022-09-04T15:00:24.931Z,29.12
2022-09-04T15:03:08.082Z,29.00
2022-09-04T15:05:47.763Z,28.94
2022-09-04T15:08:29.215Z,28.79
2022-09-04T15:11:02.365Z,28.70
2022-09-04T15:13:29.391Z,28.62
2022-09-04T15:16:14.712Z,28.58
2022-09-04T15:19:00.532Z,28.52
2022-09-04T15:21:56.404Z,28.45
2022-09-04T15:24:28.521Z,28.40
2022-09-04T15:26:56.035Z,28.47
2022-09-04T15:29:41.003Z,28.39
2022-09-04T15:32:14.183Z,28.39
2022-09-04T15:34:41.806Z,28.39
2022-09-04T15:37:27.193Z,28.49
2022-09-04T15:40:12.798Z,28.54
2022-09-04T15:42:47.073Z,28.42
2022-09-04T15:45:30.465Z,28.26
2022-09-04T15:48:26.143Z,28.31
2022-09-04T15:51:05.108Z,28.31
2022-09-04T15:53:37.111Z,28.42
2022-09-04T15:56:17.490Z,28.34
2022-09-04T15:59:22.607Z,28.22
2022-09-04T16:02:26.882Z,28.12
2022-09-04T16:05:05.572Z,27.97
2022-09-04T16:07:47.358Z,27.83
2022-09-04T16:10:27.059Z,27.72
2022-09-04T16:13:02.817Z,27.52
2022-09-04T16:15:45.181Z,27.48
2022-09-04T16:18:21.234Z,27.52
2022-09-04T16:21:00.157Z,27.42
2022-09-04T16:23:31.810Z,27.35
2022-09-04T16:26:08.933Z,27.33
2022-09-04T16:28:46.029Z,27.26
2022-09-04T16:31:15.773Z,27.11
2022-09-04T16:33:48.622Z,27.04
2022-09-04T16:36:29.086Z,26.94
2022-09-04T16:38:59.965Z,26.79
2022-09-04T16:41:37.819Z,26.72
2022-09-04T16:44:26.887Z,26.71
2022-09-04T16:47:06.231Z,26.66
2022-09-04T16:49:42.336Z,26.56
2022-09-04T16:52:27.050Z,26.47
2022-09-04T16:54:56.190Z,26.42
2022-09-04T16:57:34.253Z,26.35
2022-09-04T17:00:11.294Z,26.25
2022-09-04T17:02:51.437Z,26.13
2022-09-04T17:05:49.778Z,26.04
2022-09-04T17:08:22.597Z,25.93
2022-09-04T17:11:34.452Z,25.84
2022-09-04T17:14:15.593Z,25.72
2022-09-04T17:16:53.866Z,25.67
2022-09-04T17:19:22.177Z,25.61
2022-09-04T17:28:55.171Z,25.55
2022-09-04T17:29:03.302Z,25.44
2022-09-04T17:29:09.379Z,25.36
2022-09-04T17:31:09.279Z,25.25
2022-09-04T17:40:03.562Z,25.14
2022-09-04T17:40:43.033Z,25.06
2022-09-04T17:40:52.438Z,24.96
2022-09-04T17:42:32.467Z,24.86
2022-09-04T17:45:22.334Z,24.79
2022-09-04T17:48:19.473Z,24.73
2022-09-04T17:50:53.637Z,24.62
2022-09-04T17:53:34.439Z,24.49
2022-09-04T17:56:40.208Z,24.36
2022-09-04T17:59:14.122Z,24.23
2022-09-04T18:02:15.116Z,24.06
2022-09-04T18:04:47.437Z,23.92
2022-09-04T18:08:07.932Z,23.77
2022-09-04T18:10:37.245Z,23.59
2022-09-04T18:13:36.175Z,23.47
2022-09-04T18:16:11.826Z,23.32
2022-09-04T18:19:28.293Z,23.13
2022-09-04T18:22:26.043Z,22.99
2022-09-04T18:25:16.726Z,22.89
2022-09-04T18:28:11.427Z,22.71
2022-09-04T18:37:08.981Z,22.60
2022-09-04T18:37:23.986Z,22.46
2022-09-04T18:37:45.724Z,22.31
2022-09-04T18:40:15.699Z,22.19
2022-09-04T18:48:41.599Z,22.08
2022-09-04T18:50:35.117Z,21.97
2022-09-04T18:50:43.482Z,21.84
2022-09-04T18:51:30.643Z,21.76
2022-09-04T18:54:12.481Z,21.66
2022-09-04T18:56:44.005Z,21.58
2022-09-04T18:59:22.749Z,21.47
2022-09-04T19:02:01.196Z,21.41
2022-09-04T19:04:46.812Z,21.35
2022-09-04T19:07:32.660Z,21.23
2022-09-04T19:10:02.442Z,21.19
2022-09-04T19:12:47.517Z,21.12
2022-09-04T19:15:36.952Z,21.02
2022-09-04T19:18:22.158Z,20.92
2022-09-04T19:20:53.365Z,20.86
2022-09-04T19:23:33.114Z,20.78
2022-09-04T19:26:07.214Z,20.72
2022-09-04T19:28:52.534Z,20.64
2022-09-04T19:31:34.063Z,20.55
2022-09-04T19:34:15.437Z,20.44
2022-09-04T19:36:54.656Z,20.38
2022-09-04T19:46:05.893Z,20.30
2022-09-04T19:46:14.569Z,20.19
2022-09-04T19:46:16.093Z,20.25
2022-09-04T19:50:48.874Z,20.11
2022-09-04T19:53:21.294Z,20.04
2022-09-04T19:55:24.520Z,19.95
2022-09-04T19:58:12.211Z,19.85
2022-09-04T20:00:55.599Z,19.81
2022-09-04T20:03:29.554Z,19.70
2022-09-04T20:06:32.248Z,19.63
2022-09-04T20:09:34.668Z,19.56
2022-09-04T20:12:23.787Z,19.52
2022-09-04T20:15:13.171Z,19.46
2022-09-04T20:17:46.153Z,19.41
2022-09-04T20:20:26.303Z,19.33
2022-09-04T20:23:00.262Z,19.28
2022-09-04T20:26:13.638Z,19.19
2022-09-04T20:28:52.215Z,19.13
2022-09-04T20:31:36.023Z,19.09
2022-09-04T20:34:15.967Z,19.02
2022-09-04T20:36:48.921Z,18.96
2022-09-04T20:39:23.855Z,18.92
2022-09-04T20:42:26.311Z,18.85
2022-09-04T20:48:12.599Z,18.77
2022-09-04T20:52:54.417Z,18.74
2022-09-04T20:52:58.062Z,18.66
2022-09-04T20:54:44.927Z,18.61
2022-09-04T21:02:54.659Z,18.52
2022-09-04T21:03:17.136Z,18.49
2022-09-04T21:03:29.010Z,18.44
2022-09-04T21:06:25.457Z,18.41
2022-09-04T21:09:22.825Z,18.34
2022-09-04T21:12:03.336Z,18.27
2022-09-04T21:14:48.330Z,18.23
2022-09-04T21:17:33.737Z,18.18
2022-09-04T21:20:17.209Z,18.14
2022-09-04T21:23:05.697Z,18.06
2022-09-04T21:25:41.575Z,18.02
2022-09-04T21:28:45.886Z,17.99
2022-09-04T21:31:17.869Z,17.92
2022-09-04T21:34:18.284Z,17.87
2022-09-04T21:37:03.096Z,17.78
2022-09-04T21:39:47.705Z,17.75
2022-09-04T21:42:26.126Z,17.71
2022-09-04T21:45:17.404Z,17.68
2022-09-04T21:48:05.997Z,17.64
2022-09-04T21:50:54.079Z,17.58
2022-09-04T21:53:41.767Z,17.51
2022-09-04T21:58:04.946Z,17.46
2022-09-04T22:02:43.808Z,17.44
2022-09-04T22:03:12.220Z,17.40
2022-09-04T22:06:04.373Z,17.37
2022-09-04T22:13:27.587Z,17.36
2022-09-04T22:13:41.040Z,17.31
2022-09-04T22:14:46.682Z,17.26
2022-09-04T22:17:27.523Z,17.23
2022-09-04T22:20:13.194Z,17.22
2022-09-04T22:23:01.332Z,17.19
2022-09-04T22:25:41.292Z,17.15
2022-09-04T22:28:26.455Z,17.09
2022-09-04T22:31:12.095Z,17.07
2022-09-04T22:34:17.181Z,17.05
2022-09-04T22:37:12.345Z,17.01
2022-09-04T22:39:57.927Z,16.97
2022-09-04T22:42:47.029Z,16.92
2022-09-04T22:45:38.575Z,16.87
2022-09-04T22:48:14.321Z,16.84
2022-09-04T22:51:14.597Z,16.80
2022-09-04T22:54:20.152Z,16.77
2022-09-04T22:56:59.589Z,16.77
2022-09-04T22:59:52.383Z,16.74
2022-09-04T23:03:08.442Z,16.74
2022-09-04T23:09:04.521Z,16.70
2022-09-04T23:13:44.816Z,16.67
2022-09-04T23:13:57.504Z,16.60
2022-09-04T23:15:59.856Z,16.57
2022-09-04T23:24:13.485Z,16.56
2022-09-04T23:26:35.202Z,16.52
2022-09-04T23:26:48.450Z,16.49
2022-09-04T23:28:27.708Z,16.46
2022-09-04T23:30:58.394Z,16.43
2022-09-04T23:33:42.288Z,16.36
2022-09-04T23:36:33.533Z,16.35
2022-09-04T23:39:19.331Z,16.32
2022-09-04T23:42:26.279Z,16.28
2022-09-04T23:45:20.156Z,16.26
2022-09-04T23:48:27.598Z,16.24
2022-09-04T23:51:00.542Z,16.19
2022-09-04T23:53:30.240Z,16.18
2022-09-04T23:56:27.613Z,16.16
2022-09-04T23:59:14.235Z,16.13
